Time;durP1;ratioP1;P1;durP2;ratioP2;P2;SDS_P1;SDS_P2;PMS_P1;PMS_P2;Temp;Humidity;BMP_temperature;BMP_pressure;BME280_temperature;BME280_humidity;BME280_pressure;Samples;Min_cycle;Max_cycle;Signal;HPM_P1;HPM_P2
2020/12/31 00:00:55;;;;;;;10.70;1.37;;;24.60;77.20;;;;;;4995453;28;20647;-79
2020/12/31 00:03:23;;;;;;;8.03;1.40;;;24.60;77.30;;;;;;4979636;28;20175;-74
2020/12/31 00:05:50;;;;;;;11.80;1.50;;;24.60;76.20;;;;;;4984836;28;20221;-76
2020/12/31 00:08:18;;;;;;;6.90;1.10;;;24.40;75.90;;;;;;4984551;28;20193;-77
2020/12/31 00:10:45;;;;;;;5.83;1.17;;;24.40;76.40;;;;;;4993648;28;20652;-73
2020/12/31 00:13:12;;;;;;;6.53;1.20;;;24.50;75.80;;;;;;4988251;28;20324;-74
2020/12/31 00:15:40;;;;;;;13.23;5.60;;;24.50;75.60;;;;;;4988718;28;20179;-75
2020/12/31 00:18:07;;;;;;;6.40;1.70;;;24.40;76.70;;;;;;4986212;28;20546;-76
2020/12/31 00:20:34;;;;;;;6.17;1.53;;;24.30;76.20;;;;;;4994392;28;20172;-76
2020/12/31 00:23:02;;;;;;;8.43;1.50;;;24.40;76.30;;;;;;4986663;28;20647;-75
2020/12/31 00:25:29;;;;;;;5.97;1.43;;;24.60;76.40;;;;;;4994284;28;20244;-75
2020/12/31 00:27:56;;;;;;;6.10;1.30;;;24.70;75.10;;;;;;4986531;28;20171;-75
2020/12/31 00:30:24;;;;;;;4.67;1.00;;;24.70;74.50;;;;;;4983954;28;20228;-75
2020/12/31 00:32:51;;;;;;;4.47;1.67;;;24.80;73.70;;;;;;4997966;28;20184;-76
2020/12/31 00:35:28;;;;;;;4.90;1.20;;;24.70;74.10;;;;;;4992884;28;20178;-75
2020/12/31 00:37:55;;;;;;;6.30;1.13;;;24.50;74.10;;;;;;4979428;28;20182;-74
2020/12/31 00:40:22;;;;;;;7.90;2.03;;;24.60;74.60;;;;;;4984024;28;20261;-76
2020/12/31 00:42:50;;;;;;;6.60;1.37;;;24.50;74.50;;;;;;4987786;28;20177;-75
2020/12/31 00:45:17;;;;;;;8.03;1.30;;;24.50;74.90;;;;;;4993622;28;20224;-75
2020/12/31 00:47:45;;;;;;;5.43;1.33;;;24.30;76.70;;;;;;4987191;28;20552;-73
2020/12/31 00:50:12;;;;;;;6.67;1.47;;;24.20;74.50;;;;;;4988165;28;20636;-73
2020/12/31 00:52:39;;;;;;;9.70;1.50;;;24.20;75.70;;;;;;4984739;28;20178;-74
2020/12/31 00:55:07;;;;;;;7.40;1.70;;;24.30;75.20;;;;;;4992473;28;20213;-75
2020/12/31 00:57:34;;;;;;;6.93;1.27;;;24.40;75.10;;;;;;5005831;28;20189;-75
2020/12/31 01:00:07;;;;;;;8.97;1.53;;;24.30;76.40;;;;;;4977295;28;20656;-80
2020/12/31 01:02:35;;;;;;;5.13;1.30;;;24.20;76.00;;;;;;4992035;28;20185;-78
2020/12/31 01:05:06;;;;;;;7.00;1.40;;;24.00;77.40;;;;;;4903459;28;2332289;-74
2020/12/31 01:07:33;;;;;;;7.70;1.23;;;24.00;77.30;;;;;;5008865;28;20193;-74
2020/12/31 01:10:01;;;;;;;10.10;1.33;;;23.90;76.10;;;;;;4990357;28;20220;-75
2020/12/31 01:12:30;;;;;;;7.37;1.20;;;23.60;77.60;;;;;;4992659;28;20197;-74
2020/12/31 01:14:57;;;;;;;7.37;1.50;;;23.60;78.10;;;;;;4991677;28;20193;-77
2020/12/31 01:17:28;;;;;;;9.97;1.60;;;23.80;78.30;;;;;;4987797;28;20564;-73
2020/12/31 01:19:55;;;;;;;6.60;1.50;;;23.70;78.50;;;;;;4993434;28;20690;-75
2020/12/31 01:22:23;;;;;;;10.20;1.90;;;23.60;78.60;;;;;;4976327;28;20753;-76
2020/12/31 01:24:53;;;;;;;8.77;1.40;;;23.60;77.80;;;;;;4974591;28;20230;-76
2020/12/31 01:27:20;;;;;;;4.60;1.37;;;23.70;78.00;;;;;;4974296;28;20198;-73
2020/12/31 01:29:47;;;;;;;7.30;1.20;;;23.70;77.30;;;;;;4989929;28;20277;-74
2020/12/31 01:32:15;;;;;;;5.10;1.30;;;23.70;78.00;;;;;;4986206;28;20629;-77
2020/12/31 01:34:42;;;;;;;13.00;1.40;;;23.70;77.00;;;;;;4994070;28;20190;-77
2020/12/31 01:37:10;;;;;;;5.83;1.60;;;23.60;77.70;;;;;;4993328;28;20256;-75
2020/12/31 01:39:37;;;;;;;6.77;1.40;;;23.60;78.90;;;;;;4993734;28;20699;-77
2020/12/31 01:42:07;;;;;;;6.40;1.50;;;23.60;79.40;;;;;;4993215;28;20178;-77
2020/12/31 01:44:35;;;;;;;9.30;1.43;;;23.70;78.70;;;;;;4993091;28;20210;-75
2020/12/31 01:47:02;;;;;;;5.30;1.10;;;23.60;79.10;;;;;;4993697;28;20174;-73
2020/12/31 01:49:31;;;;;;;11.53;1.40;;;23.70;79.50;;;;;;4993680;28;20185;-73
2020/12/31 01:52:00;;;;;;;6.43;1.57;;;23.70;80.50;;;;;;4994089;28;20170;-77
2020/12/31 01:54:28;;;;;;;10.30;1.60;;;23.70;82.40;;;;;;4993738;28;20189;-76
2020/12/31 01:56:57;;;;;;;9.33;1.47;;;23.60;83.90;;;;;;4993856;28;20193;-74
2020/12/31 01:59:26;;;;;;;9.20;1.60;;;23.50;85.00;;;;;;4993934;28;20170;-79
2020/12/31 02:01:54;;;;;;;8.93;1.70;;;23.40;87.30;;;;;;4993560;28;20667;-77
2020/12/31 02:04:22;;;;;;;8.13;1.30;;;23.10;88.40;;;;;;4992777;28;20234;-80
2020/12/31 02:06:51;;;;;;;7.87;1.90;;;23.00;88.70;;;;;;4993519;28;20197;-79
2020/12/31 02:09:18;;;;;;;4.47;1.60;;;22.90;89.10;;;;;;4993512;28;20182;-76
2020/12/31 02:11:46;;;;;;;8.00;1.50;;;22.90;89.10;;;;;;4993674;28;20180;-77
2020/12/31 02:14:13;;;;;;;8.53;1.47;;;22.90;88.20;;;;;;4996454;28;20212;-77
2020/12/31 02:16:41;;;;;;;8.93;1.67;;;22.80;88.70;;;;;;4996495;28;20247;-76
2020/12/31 02:19:19;;;;;;;9.37;1.87;;;22.80;88.30;;;;;;4997158;28;20178;-78
2020/12/31 02:21:48;;;;;;;6.87;2.07;;;22.80;88.30;;;;;;4994568;28;20265;-74
2020/12/31 02:24:41;;;;;;;6.50;1.47;;;22.80;88.90;;;;;;4993503;28;20736;-75
2020/12/31 02:27:09;;;;;;;8.07;1.50;;;22.80;90.40;;;;;;4993380;28;20536;-74
2020/12/31 02:29:36;;;;;;;10.87;1.60;;;22.70;90.90;;;;;;4993322;28;20561;-73
2020/12/31 02:32:03;;;;;;;10.97;2.00;;;22.30;92.80;;;;;;4993438;28;20679;-75
2020/12/31 02:34:31;;;;;;;6.30;1.53;;;22.10;94.10;;;;;;4993246;28;20174;-74
2020/12/31 02:36:58;;;;;;;8.03;1.90;;;21.80;94.80;;;;;;4993259;28;20166;-73
2020/12/31 02:39:26;;;;;;;11.60;1.87;;;21.60;95.60;;;;;;4993338;28;20174;-73
2020/12/31 02:41:53;;;;;;;8.60;2.17;;;21.50;96.00;;;;;;4991832;28;20663;-72
2020/12/31 02:44:20;;;;;;;10.50;2.20;;;21.30;97.20;;;;;;4993117;28;20264;-73
2020/12/31 02:46:48;;;;;;;10.30;2.10;;;21.20;97.90;;;;;;4993152;28;20178;-72
2020/12/31 02:49:15;;;;;;;11.03;2.30;;;21.20;98.30;;;;;;4992907;28;20182;-72
2020/12/31 02:51:45;;;;;;;6.43;1.33;;;21.20;99.00;;;;;;4993273;28;20542;-71
2020/12/31 02:54:12;;;;;;;9.53;2.10;;;21.20;98.20;;;;;;4993014;28;20178;-72
2020/12/31 02:56:40;;;;;;;9.17;1.83;;;21.30;97.90;;;;;;4993130;28;20206;-74
2020/12/31 02:59:07;;;;;;;10.53;2.03;;;21.30;98.10;;;;;;4992938;28;20541;-72
2020/12/31 03:01:34;;;;;;;12.87;2.20;;;21.30;98.20;;;;;;4992991;28;20281;-72
2020/12/31 03:04:02;;;;;;;11.00;2.07;;;21.20;98.30;;;;;;4992879;28;20229;-73
2020/12/31 03:06:29;;;;;;;9.60;2.57;;;21.20;98.10;;;;;;4992911;28;20209;-75
2020/12/31 03:08:56;;;;;;;11.07;2.37;;;21.20;98.40;;;;;;4993023;28;20189;-73
2020/12/31 03:11:25;;;;;;;8.77;2.63;;;21.10;98.70;;;;;;4992749;28;20184;-75
2020/12/31 03:13:53;;;;;;;14.63;5.30;;;21.10;98.90;;;;;;4992807;28;20188;-77
2020/12/31 03:16:21;;;;;;;12.17;2.20;;;21.10;99.20;;;;;;4992914;28;20520;-76
2020/12/31 03:18:48;;;;;;;11.70;2.50;;;21.00;99.00;;;;;;4991578;28;20235;-75
2020/12/31 03:21:16;;;;;;;9.03;2.07;;;21.10;99.20;;;;;;4995146;28;20607;-75
2020/12/31 03:23:43;;;;;;;8.47;2.40;;;21.20;99.10;;;;;;4995069;28;20268;-76
2020/12/31 03:26:11;;;;;;;12.17;2.73;;;21.00;99.00;;;;;;4996512;28;20174;-73
2020/12/31 03:28:39;;;;;;;7.03;1.70;;;21.00;99.30;;;;;;4984510;28;20178;-76
2020/12/31 03:31:06;;;;;;;7.77;2.00;;;20.80;99.30;;;;;;4976721;28;20182;-77
2020/12/31 03:33:33;;;;;;;12.37;2.37;;;20.70;99.40;;;;;;4975708;28;20592;-75
2020/12/31 03:36:01;;;;;;;14.87;2.70;;;20.70;99.50;;;;;;4982193;28;20593;-75
2020/12/31 03:38:28;;;;;;;10.07;2.97;;;20.80;99.60;;;;;;4996024;28;20648;-77
2020/12/31 03:40:55;;;;;;;10.97;2.10;;;20.80;99.60;;;;;;4996235;28;20170;-75
2020/12/31 03:43:23;;;;;;;10.97;2.23;;;20.80;99.40;;;;;;4995973;28;20174;-75
2020/12/31 03:45:50;;;;;;;9.77;2.50;;;20.90;99.40;;;;;;4996169;28;20732;-77
2020/12/31 03:48:17;;;;;;;9.77;1.90;;;20.90;99.30;;;;;;4995826;28;20186;-77
2020/12/31 03:50:50;;;;;;;11.83;2.47;;;20.90;99.20;;;;;;4996022;28;20182;-76
2020/12/31 03:53:17;;;;;;;9.73;2.33;;;21.00;99.40;;;;;;4996055;28;20679;-77
2020/12/31 03:55:45;;;;;;;10.07;1.97;;;21.20;98.60;;;;;;4995421;28;20212;-76
2020/12/31 03:58:12;;;;;;;9.93;1.80;;;21.20;99.10;;;;;;4995709;28;20210;-77
2020/12/31 04:00:39;;;;;;;6.87;1.70;;;21.30;98.90;;;;;;4995394;28;20232;-76
2020/12/31 04:03:07;;;;;;;14.17;2.13;;;21.20;98.80;;;;;;4995095;28;20180;-75
2020/12/31 04:05:34;;;;;;;9.50;1.63;;;21.10;98.80;;;;;;4995557;28;20214;-78
2020/12/31 04:08:01;;;;;;;5.67;1.27;;;21.00;98.80;;;;;;4996062;28;20265;-79
2020/12/31 04:10:28;;;;;;;12.80;1.90;;;20.90;98.80;;;;;;4995695;28;20174;-76
2020/12/31 04:12:56;;;;;;;9.23;1.30;;;20.80;98.70;;;;;;4995600;28;20550;-77
2020/12/31 04:15:23;;;;;;;10.73;1.83;;;20.70;98.90;;;;;;4995266;28;20173;-77
2020/12/31 04:17:50;;;;;;;8.97;2.30;;;20.70;99.00;;;;;;4995551;28;20174;-74
2020/12/31 04:20:18;;;;;;;12.03;2.10;;;20.70;99.60;;;;;;4995656;28;20268;-75
2020/12/31 04:22:45;;;;;;;8.07;1.70;;;20.70;99.70;;;;;;4995550;28;20178;-77
2020/12/31 04:25:13;;;;;;;10.60;2.30;;;20.60;99.90;;;;;;4995180;28;20220;-76
2020/12/31 04:27:40;;;;;;;11.80;2.63;;;20.70;99.90;;;;;;4995317;28;20564;-78
2020/12/31 04:30:07;;;;;;;9.43;2.40;;;20.80;99.90;;;;;;4994278;28;20596;-80
2020/12/31 04:32:34;;;;;;;9.87;2.17;;;21.00;99.80;;;;;;4995737;28;20636;-81
2020/12/31 04:35:02;;;;;;;8.00;1.80;;;21.20;99.60;;;;;;4995569;28;20787;-80
2020/12/31 04:37:29;;;;;;;11.37;1.90;;;21.50;99.30;;;;;;4995191;28;20620;-80
2020/12/31 04:39:57;;;;;;;10.93;1.90;;;21.70;99.40;;;;;;4995575;28;20543;-80
2020/12/31 04:42:37;;;;;;;9.33;2.03;;;21.70;99.00;;;;;;4995248;28;20666;-79
2020/12/31 04:45:05;;;;;;;8.90;2.43;;;21.50;98.40;;;;;;4995345;28;20667;-81
2020/12/31 04:47:58;;;;;;;7.30;1.70;;;21.40;98.80;;;;;;4995286;28;20240;-81
2020/12/31 04:50:32;;;;;;;9.33;2.13;;;21.40;98.90;;;;;;4994724;28;20185;-80
2020/12/31 04:53:06;;;;;;;9.83;2.00;;;21.40;98.80;;;;;;4995197;28;20185;-81
2020/12/31 04:55:41;;;;;;;10.00;2.00;;;21.20;98.90;;;;;;4995218;28;20188;-76
2020/12/31 04:58:14;;;;;;;10.93;2.47;;;21.10;98.70;;;;;;4994947;28;20232;-79
2020/12/31 05:00:42;;;;;;;12.43;2.77;;;21.00;99.50;;;;;;4994776;28;20166;-76
2020/12/31 05:03:10;;;;;;;13.30;2.40;;;20.90;99.90;;;;;;4994604;28;20181;-78
2020/12/31 05:05:39;;;;;;;7.10;2.00;;;20.80;99.60;;;;;;4994655;28;20213;-75
2020/12/31 05:08:07;;;;;;;17.57;3.20;;;20.70;99.60;;;;;;4994560;28;20188;-76
2020/12/31 05:10:36;;;;;;;15.00;2.40;;;20.70;99.90;;;;;;4994660;28;20186;-77
2020/12/31 05:13:08;;;;;;;11.73;2.27;;;20.60;99.80;;;;;;4995023;28;20611;-80
2020/12/31 05:15:40;;;;;;;9.40;1.80;;;20.60;99.90;;;;;;4993957;28;20683;-77
2020/12/31 05:18:18;;;;;;;12.47;2.87;;;20.50;99.80;;;;;;4992039;28;20289;-79
2020/12/31 05:20:50;;;;;;;13.60;2.50;;;20.50;99.90;;;;;;4994431;28;20217;-81
2020/12/31 05:23:22;;;;;;;8.67;1.80;;;20.60;99.50;;;;;;4993029;28;20533;-81
2020/12/31 05:25:50;;;;;;;10.10;2.27;;;20.60;99.90;;;;;;4993825;28;20190;-79
2020/12/31 05:28:39;;;;;;;9.07;2.10;;;20.70;99.90;;;;;;4994669;28;20201;-80
2020/12/31 05:31:11;;;;;;;8.30;1.60;;;20.70;99.70;;;;;;4994143;28;20535;-82
2020/12/31 05:33:43;;;;;;;9.07;1.93;;;20.60;99.30;;;;;;4994245;28;20213;-77
2020/12/31 05:36:28;;;;;;;9.53;1.73;;;20.50;98.90;;;;;;4994217;28;20196;-82
2020/12/31 05:39:00;;;;;;;8.77;1.83;;;20.40;99.40;;;;;;4994158;28;20197;-81
2020/12/31 05:41:32;;;;;;;7.37;1.80;;;20.40;99.40;;;;;;4993700;28;20178;-82
2020/12/31 05:44:06;;;;;;;11.83;2.13;;;20.40;99.90;;;;;;4993879;28;20210;-83
2020/12/31 05:46:35;;;;;;;18.00;2.20;;;20.40;99.30;;;;;;4993927;28;20391;-83
2020/12/31 05:49:06;;;;;;;8.60;1.50;;;20.40;99.70;;;;;;4993739;28;20178;-83
2020/12/31 05:51:44;;;;;;;13.57;1.83;;;20.40;99.40;;;;;;4993961;28;20182;-75
2020/12/31 05:54:13;;;;;;;13.93;2.37;;;20.40;99.60;;;;;;4994039;28;20170;-80
2020/12/31 05:56:45;;;;;;;13.07;2.10;;;20.40;99.50;;;;;;4993641;28;20720;-82
2020/12/31 05:59:29;;;;;;;11.73;2.23;;;20.50;99.40;;;;;;4993334;28;20229;-81
2020/12/31 06:02:01;;;;;;;12.37;2.33;;;20.70;99.70;;;;;;4990619;28;20654;-81
2020/12/31 06:04:31;;;;;;;13.30;2.20;;;20.70;99.30;;;;;;4982735;28;20234;-82
2020/12/31 06:07:03;;;;;;;11.33;2.27;;;20.80;99.20;;;;;;4986612;28;20178;-80
2020/12/31 06:09:35;;;;;;;11.30;1.93;;;20.90;98.90;;;;;;4988443;28;20641;-80
2020/12/31 06:12:10;;;;;;;13.13;2.17;;;21.00;98.30;;;;;;4985248;28;20210;-79
2020/12/31 06:14:38;;;;;;;19.00;2.53;;;21.10;97.80;;;;;;4985266;28;20182;-81
2020/12/31 06:17:06;;;;;;;22.27;6.83;;;21.10;97.40;;;;;;4985947;28;20714;-77
2020/12/31 06:19:39;;;;;;;20.63;5.03;;;21.10;97.00;;;;;;4974182;28;20273;-79
2020/12/31 06:22:08;;;;;;;15.60;2.50;;;21.20;97.50;;;;;;4975926;28;20225;-77
2020/12/31 06:24:46;;;;;;;13.50;1.97;;;21.10;97.70;;;;;;4978172;28;20924;-77
2020/12/31 06:27:17;;;;;;;15.87;2.87;;;21.10;97.30;;;;;;4982982;28;20241;-75
2020/12/31 06:29:47;;;;;;;9.20;2.73;;;21.10;97.10;;;;;;4983123;28;20181;-75
2020/12/31 06:32:25;;;;;;;19.47;2.87;;;21.10;96.90;;;;;;4990123;28;20181;-75
2020/12/31 06:35:07;;;;;;;18.60;3.10;;;21.00;96.70;;;;;;4973946;28;20182;-73
2020/12/31 06:37:34;;;;;;;12.10;2.20;;;21.00;96.90;;;;;;4989580;28;20192;-76
2020/12/31 06:40:29;;;;;;;15.40;1.97;;;21.00;96.70;;;;;;4989584;28;20182;-73
2020/12/31 06:43:14;;;;;;;11.70;2.33;;;21.00;96.60;;;;;;4975627;28;20296;-74
2020/12/31 06:45:46;;;;;;;9.30;1.70;;;21.00;96.60;;;;;;4985520;28;20222;-73
2020/12/31 06:48:28;;;;;;;14.53;1.93;;;21.00;96.70;;;;;;4993017;28;20225;-73
2020/12/31 06:51:03;;;;;;;12.83;2.33;;;20.90;96.90;;;;;;4988442;28;20250;-73
2020/12/31 06:53:36;;;;;;;11.37;1.83;;;20.90;96.30;;;;;;4993640;28;20635;-72
2020/12/31 06:56:10;;;;;;;9.77;1.80;;;20.80;96.30;;;;;;4996928;28;20204;-73
2020/12/31 06:58:39;;;;;;;17.73;3.13;;;20.80;95.90;;;;;;4996971;28;20632;-72
2020/12/31 07:01:29;;;;;;;17.13;2.50;;;20.80;96.40;;;;;;4995146;28;20197;-73
2020/12/31 07:03:58;;;;;;;11.30;1.90;;;20.80;96.00;;;;;;4992018;28;20229;-72
2020/12/31 07:06:26;;;;;;;11.70;1.60;;;20.80;95.80;;;;;;4982475;28;20179;-71
2020/12/31 07:08:58;;;;;;;8.73;1.83;;;20.80;95.40;;;;;;4987528;28;20181;-72
2020/12/31 07:11:40;;;;;;;13.70;2.00;;;20.80;95.60;;;;;;5007826;28;20628;-72
2020/12/31 07:14:20;;;;;;;9.70;1.23;;;20.80;95.50;;;;;;4988934;28;20269;-72
2020/12/31 07:17:00;;;;;;;14.77;2.00;;;20.80;95.10;;;;;;4994164;28;20193;-72
2020/12/31 07:19:36;;;;;;;17.70;1.97;;;20.90;95.60;;;;;;4982302;28;20203;-73
2020/12/31 07:22:11;;;;;;;13.63;2.27;;;20.80;94.80;;;;;;4976931;28;20194;-72
2020/12/31 07:24:48;;;;;;;12.10;2.30;;;20.90;95.30;;;;;;4994225;28;20225;-72
2020/12/31 07:27:27;;;;;;;12.83;2.27;;;20.90;95.40;;;;;;4981081;28;20233;-73
2020/12/31 07:30:08;;;;;;;11.23;2.40;;;20.90;95.20;;;;;;4986692;28;20675;-72
2020/12/31 07:32:54;;;;;;;15.93;2.83;;;20.90;94.80;;;;;;4986321;28;20244;-72
2020/12/31 07:35:31;;;;;;;15.40;2.50;;;20.90;95.00;;;;;;4990099;28;20186;-72
2020/12/31 07:38:05;;;;;;;13.87;2.23;;;20.90;95.00;;;;;;4982935;28;20204;-72
2020/12/31 07:40:37;;;;;;;14.07;2.53;;;20.90;95.00;;;;;;4988728;28;20641;-73
2020/12/31 07:43:05;;;;;;;14.93;2.67;;;20.90;95.00;;;;;;4986166;28;20663;-72
2020/12/31 07:45:33;;;;;;;12.60;3.80;;;21.00;94.30;;;;;;4985230;28;20229;-71
2020/12/31 07:48:01;;;;;;;13.17;2.07;;;21.00;94.40;;;;;;4992964;28;20252;-71
2020/12/31 07:50:29;;;;;;;15.17;2.60;;;21.00;93.90;;;;;;4991186;28;20775;-71
2020/12/31 07:53:00;;;;;;;9.20;1.50;;;21.00;94.50;;;;;;4989320;28;20241;-71
2020/12/31 07:55:28;;;;;;;12.57;1.90;;;21.00;94.40;;;;;;4992481;28;20200;-71
2020/12/31 07:57:57;;;;;;;12.07;2.73;;;21.00;94.40;;;;;;4989596;28;20629;-71
2020/12/31 08:00:24;;;;;;;11.83;1.73;;;21.00;94.70;;;;;;4993421;28;20678;-71
2020/12/31 08:02:55;;;;;;;14.80;2.23;;;21.10;94.70;;;;;;4992210;28;20189;-71
2020/12/31 08:05:24;;;;;;;13.73;2.50;;;21.00;94.80;;;;;;4990125;28;20341;-71
2020/12/31 08:07:54;;;;;;;17.63;6.37;;;21.00;94.90;;;;;;4988640;28;21648;-71
2020/12/31 08:10:22;;;;;;;13.63;2.57;;;21.00;94.80;;;;;;4989650;28;20252;-71
2020/12/31 08:12:59;;;;;;;12.27;2.23;;;20.90;94.30;;;;;;4988032;28;20182;-72
2020/12/31 08:15:27;;;;;;;16.07;2.33;;;20.90;94.60;;;;;;4991720;28;20186;-71
2020/12/31 08:18:02;;;;;;;9.10;2.20;;;20.90;94.60;;;;;;4988531;28;20186;-71
2020/12/31 08:20:37;;;;;;;8.10;2.23;;;20.80;94.40;;;;;;4982150;28;20190;-72
2020/12/31 08:23:06;;;;;;;8.60;2.03;;;20.80;94.40;;;;;;4985344;28;20268;-72
2020/12/31 08:25:43;;;;;;;10.57;2.13;;;20.80;94.80;;;;;;4988967;28;20680;-72
2020/12/31 08:28:11;;;;;;;20.87;6.30;;;20.70;94.60;;;;;;4985518;28;20186;-71
2020/12/31 08:30:38;;;;;;;42.20;11.50;;;20.70;94.40;;;;;;4988797;28;20256;-71
2020/12/31 08:33:10;;;;;;;47.87;13.27;;;20.70;94.30;;;;;;4988208;28;20613;-72
2020/12/31 08:35:46;;;;;;;64.37;18.10;;;20.70;94.30;;;;;;4988053;28;20234;-72
2020/12/31 08:38:16;;;;;;;26.40;5.60;;;20.70;94.40;;;;;;4986284;28;20185;-72
2020/12/31 08:40:56;;;;;;;20.57;4.47;;;20.70;94.20;;;;;;4983543;28;20182;-72
2020/12/31 08:43:24;;;;;;;24.23;6.37;;;20.70;94.10;;;;;;4984070;28;20606;-71
2020/12/31 08:45:57;;;;;;;15.93;2.40;;;20.70;94.10;;;;;;4986737;28;20215;-72
2020/12/31 08:48:29;;;;;;;8.97;2.00;;;20.70;94.10;;;;;;4998093;28;20605;-72
2020/12/31 08:51:09;;;;;;;14.53;3.17;;;20.60;94.20;;;;;;4985509;28;20197;-72
2020/12/31 08:54:01;;;;;;;13.50;1.90;;;20.60;94.20;;;;;;4986982;28;20241;-72
2020/12/31 08:56:33;;;;;;;10.20;1.83;;;20.60;94.00;;;;;;4989352;28;20687;-71
2020/12/31 08:59:32;;;;;;;12.13;2.47;;;20.60;93.90;;;;;;4983858;28;21081;-72
2020/12/31 09:02:02;;;;;;;14.20;2.13;;;20.60;93.60;;;;;;4987316;28;20649;-72
2020/12/31 09:04:29;;;;;;;6.33;1.70;;;20.60;93.90;;;;;;4985275;28;20688;-72
2020/12/31 09:07:09;;;;;;;12.33;2.10;;;20.60;94.00;;;;;;4988834;28;20667;-73
2020/12/31 09:09:36;;;;;;;14.53;2.50;;;20.60;94.00;;;;;;4985354;28;20202;-73
2020/12/31 09:12:04;;;;;;;13.60;4.07;;;20.50;94.30;;;;;;4988406;28;20584;-73
2020/12/31 09:14:37;;;;;;;13.90;6.97;;;20.50;93.80;;;;;;4990200;28;20253;-73
2020/12/31 09:17:23;;;;;;;10.70;2.07;;;20.50;94.20;;;;;;4985708;28;20194;-72
2020/12/31 09:19:54;;;;;;;9.53;1.73;;;20.50;94.10;;;;;;4978420;28;20201;-72
2020/12/31 09:22:24;;;;;;;10.27;2.10;;;20.50;93.50;;;;;;4983261;28;20245;-72
2020/12/31 09:24:52;;;;;;;12.70;2.17;;;20.50;94.10;;;;;;4985552;28;20629;-72
2020/12/31 09:27:27;;;;;;;13.17;2.40;;;20.50;93.50;;;;;;4978958;28;20225;-72
2020/12/31 09:30:00;;;;;;;13.37;2.43;;;20.50;93.20;;;;;;4990658;28;20181;-73
2020/12/31 09:32:28;;;;;;;11.17;2.00;;;20.50;93.40;;;;;;4986030;28;20584;-72
2020/12/31 09:34:56;;;;;;;9.23;2.10;;;20.50;93.60;;;;;;4987418;28;20191;-72
2020/12/31 09:37:23;;;;;;;12.03;2.63;;;20.50;93.30;;;;;;4986143;28;20182;-73
2020/12/31 09:39:50;;;;;;;14.37;2.87;;;20.50;93.70;;;;;;4987403;28;20191;-72
2020/12/31 09:42:18;;;;;;;9.87;2.37;;;20.50;93.80;;;;;;4986885;28;20190;-73
2020/12/31 09:44:45;;;;;;;18.80;7.90;;;20.50;93.10;;;;;;4990545;28;20252;-73
2020/12/31 09:47:12;;;;;;;18.57;3.60;;;20.50;93.40;;;;;;4989082;28;20181;-72
2020/12/31 09:49:40;;;;;;;6.33;2.07;;;20.40;92.90;;;;;;4983065;28;20190;-72
2020/12/31 09:52:07;;;;;;;12.90;3.53;;;20.50;93.00;;;;;;4985508;28;20549;-71
2020/12/31 09:54:34;;;;;;;10.97;2.90;;;20.40;92.90;;;;;;4988112;28;20182;-74
2020/12/31 09:57:04;;;;;;;10.17;2.23;;;20.40;92.90;;;;;;4986159;28;20180;-74
2020/12/31 09:59:31;;;;;;;15.67;2.40;;;20.40;92.80;;;;;;4984043;28;20213;-74
2020/12/31 10:01:59;;;;;;;10.63;1.93;;;20.40;92.70;;;;;;4991039;28;20270;-74
2020/12/31 10:04:26;;;;;;;11.30;2.30;;;20.40;92.40;;;;;;4987108;28;20234;-74
2020/12/31 10:06:54;;;;;;;7.23;1.67;;;20.40;92.60;;;;;;4988426;28;20209;-71
2020/12/31 10:09:21;;;;;;;11.87;2.30;;;20.40;92.90;;;;;;4987120;28;20178;-73
2020/12/31 10:11:53;;;;;;;16.47;9.10;;;20.40;92.70;;;;;;4987428;28;20189;-73
2020/12/31 10:14:21;;;;;;;14.23;2.63;;;20.40;92.60;;;;;;4987258;28;20178;-73
2020/12/31 10:16:50;;;;;;;12.33;2.30;;;20.30;92.40;;;;;;4988206;28;20645;-73
2020/12/31 10:19:17;;;;;;;8.20;1.70;;;20.40;92.40;;;;;;4983997;28;20174;-73
2020/12/31 10:21:48;;;;;;;7.73;2.50;;;20.40;92.40;;;;;;4986383;28;20237;-73
2020/12/31 10:24:16;;;;;;;8.30;1.80;;;20.40;92.20;;;;;;4987184;28;20221;-74
2020/12/31 10:26:44;;;;;;;7.83;1.47;;;20.30;92.10;;;;;;4985332;28;20270;-73
2020/12/31 10:29:16;;;;;;;14.87;2.60;;;20.30;91.70;;;;;;4987109;28;20605;-73
2020/12/31 10:31:43;;;;;;;7.93;1.33;;;20.30;91.90;;;;;;4993515;28;20185;-73
2020/12/31 10:34:11;;;;;;;6.07;1.53;;;20.30;91.70;;;;;;4986142;28;20321;-74
2020/12/31 10:36:39;;;;;;;13.87;2.10;;;20.30;91.80;;;;;;4988159;28;20222;-75
2020/12/31 10:39:06;;;;;;;9.13;1.97;;;20.30;91.90;;;;;;4991338;28;20186;-73
2020/12/31 10:41:33;;;;;;;9.43;1.50;;;20.30;91.60;;;;;;4991619;28;20202;-73
2020/12/31 10:44:01;;;;;;;8.67;1.50;;;20.20;91.30;;;;;;4990614;28;20228;-73
2020/12/31 10:46:30;;;;;;;14.50;1.70;;;20.20;91.30;;;;;;4995212;28;20181;-72
2020/12/31 10:48:57;;;;;;;7.30;1.40;;;20.20;91.20;;;;;;4992523;28;20189;-69
2020/12/31 10:51:24;;;;;;;7.07;1.60;;;20.10;91.20;;;;;;4987095;28;20190;-75
2020/12/31 10:53:52;;;;;;;14.00;2.23;;;20.20;91.40;;;;;;4982713;28;20217;-74
2020/12/31 10:56:20;;;;;;;11.80;2.27;;;20.10;91.50;;;;;;4986793;28;20187;-75
2020/12/31 10:58:47;;;;;;;11.47;2.17;;;20.10;91.40;;;;;;4990699;28;20193;-73
2020/12/31 11:01:15;;;;;;;3.67;1.33;;;20.10;91.20;;;;;;4988112;28;20197;-74
2020/12/31 11:03:43;;;;;;;6.80;1.77;;;20.10;91.20;;;;;;4982099;28;20218;-73
2020/12/31 11:06:22;;;;;;;10.60;1.83;;;20.10;91.10;;;;;;4988534;28;20191;-73
2020/12/31 11:08:49;;;;;;;11.60;1.87;;;20.00;91.10;;;;;;4983137;28;20231;-72
2020/12/31 11:11:19;;;;;;;7.13;1.70;;;20.00;91.00;;;;;;4985724;28;20955;-74
2020/12/31 11:13:46;;;;;;;7.50;1.80;;;20.00;91.10;;;;;;4993086;28;20187;-77
2020/12/31 11:16:14;;;;;;;6.53;1.27;;;20.00;90.90;;;;;;4987580;28;20194;-74
2020/12/31 11:18:42;;;;;;;8.50;1.60;;;19.90;90.70;;;;;;4983688;28;20518;-73
2020/12/31 11:21:13;;;;;;;10.70;3.60;;;19.90;90.70;;;;;;4983322;28;20555;-75
2020/12/31 11:23:41;;;;;;;9.13;2.30;;;19.90;90.80;;;;;;4988728;28;20190;-72
2020/12/31 11:26:22;;;;;;;3.87;1.20;;;19.90;90.90;;;;;;4991786;28;20249;-74
2020/12/31 11:28:50;;;;;;;6.90;1.80;;;19.90;90.80;;;;;;4976562;28;20186;-75
2020/12/31 11:31:26;;;;;;;6.80;1.43;;;19.90;90.70;;;;;;4985682;28;20190;-73
2020/12/31 11:33:55;;;;;;;6.87;1.77;;;19.80;90.70;;;;;;4991369;28;20189;-73
2020/12/31 11:36:23;;;;;;;8.47;1.60;;;19.80;91.00;;;;;;4983645;28;20537;-76
2020/12/31 11:38:55;;;;;;;9.60;1.90;;;19.70;91.10;;;;;;4985964;28;20191;-73
2020/12/31 11:41:23;;;;;;;8.83;1.57;;;19.70;90.90;;;;;;4985565;28;20190;-74
2020/12/31 11:43:51;;;;;;;6.07;1.53;;;19.70;91.00;;;;;;4983506;28;20212;-75
2020/12/31 11:46:19;;;;;;;9.57;1.73;;;19.60;91.00;;;;;;4991727;28;20268;-74
2020/12/31 11:48:46;;;;;;;12.63;1.97;;;19.60;91.30;;;;;;4982316;28;20179;-74
2020/12/31 11:51:13;;;;;;;9.13;1.40;;;19.60;91.20;;;;;;4992294;28;20182;-74
2020/12/31 11:53:41;;;;;;;9.87;1.73;;;19.60;91.40;;;;;;4989624;28;20191;-76
2020/12/31 11:56:09;;;;;;;7.83;1.37;;;19.50;91.40;;;;;;4986034;28;20261;-76
2020/12/31 11:58:36;;;;;;;7.43;2.13;;;19.50;91.30;;;;;;4986304;28;20537;-75
2020/12/31 12:01:04;;;;;;;9.00;1.63;;;19.50;91.50;;;;;;4992346;28;20187;-76
2020/12/31 12:03:31;;;;;;;11.37;1.83;;;19.50;91.50;;;;;;4984268;28;20218;-74
2020/12/31 12:05:58;;;;;;;10.47;1.67;;;19.40;91.60;;;;;;4991615;28;20766;-78
2020/12/31 12:08:28;;;;;;;4.33;1.67;;;19.40;91.80;;;;;;4985591;28;20178;-76
2020/12/31 12:10:57;;;;;;;8.53;1.70;;;19.40;91.90;;;;;;4989479;28;20249;-75
2020/12/31 12:13:25;;;;;;;9.17;1.60;;;19.30;91.80;;;;;;4989533;28;20190;-76
2020/12/31 12:15:53;;;;;;;13.10;2.70;;;19.30;92.20;;;;;;4984595;28;20191;-75
2020/12/31 12:18:20;;;;;;;16.07;8.53;;;19.30;92.30;;;;;;4992519;28;20668;-76
2020/12/31 12:20:51;;;;;;;11.33;2.90;;;19.30;92.50;;;;;;4989521;28;20652;-76
2020/12/31 12:23:21;;;;;;;11.43;2.10;;;19.20;92.70;;;;;;4994275;28;20185;-76
2020/12/31 12:25:50;;;;;;;8.77;2.20;;;19.20;92.60;;;;;;4985070;28;20711;-75
2020/12/31 12:28:17;;;;;;;8.50;1.73;;;19.20;92.80;;;;;;4989507;28;20178;-75
2020/12/31 12:30:44;;;;;;;14.47;6.83;;;19.10;92.90;;;;;;4986697;28;20591;-74
2020/12/31 12:33:12;;;;;;;8.43;2.50;;;19.10;93.10;;;;;;4987367;28;20183;-76
2020/12/31 12:35:39;;;;;;;7.53;2.40;;;19.10;92.90;;;;;;4985639;28;20185;-75
2020/12/31 12:38:07;;;;;;;10.07;2.40;;;19.20;93.10;;;;;;4983956;28;20190;-76
2020/12/31 12:40:35;;;;;;;10.23;1.80;;;19.10;93.20;;;;;;4988650;28;20257;-76
2020/12/31 12:43:02;;;;;;;8.97;1.67;;;19.10;93.40;;;;;;4986675;28;20189;-75
2020/12/31 12:45:29;;;;;;;9.63;2.20;;;19.10;93.40;;;;;;4984962;28;20249;-75
2020/12/31 12:47:57;;;;;;;10.27;2.10;;;19.20;93.60;;;;;;4988708;28;20186;-74
2020/12/31 12:50:24;;;;;;;9.87;1.50;;;19.10;93.40;;;;;;4989339;28;20186;-75
2020/12/31 12:52:52;;;;;;;7.53;1.70;;;19.10;93.30;;;;;;4989877;28;20533;-74
2020/12/31 12:55:19;;;;;;;9.87;1.73;;;19.10;93.30;;;;;;4990263;28;20190;-74